Time,TemperatureF,DewpointF,PressureIn,WindDirection,WindDirectionDegrees,WindSpeedMPH,WindSpeedGustMPH,Humidity,HourlyPrecipIn,Conditions,Clouds,dailyrainin,SoftwareType,DateUTC
2013-03-04 00:00:00,28.9,8.7,30.14,NE,40,0.0,0.0,42,0.00,,BKN075,0.00,VWS V14.01,2013-03-04 08:00:00,
2013-03-04 00:05:00,28.8,9.1,30.14,NE,40,0.0,0.0,43,0.00,,FEW075,0.00,VWS V14.01,2013-03-04 08:05:00,
2013-03-04 00:10:00,28.4,9.3,30.14,NE,40,0.0,0.0,44,0.00,,FEW075,0.00,VWS V14.01,2013-03-04 08:10:00,
2013-03-04 00:15:00,27.7,8.6,30.14,NE,40,0.0,0.0,44,0.00,,FEW075,0.00,VWS V14.01,2013-03-04 08:15:00,
2013-03-04 00:20:00,27.5,9.0,30.14,NNW,345,0.0,0.0,45,0.00,,FEW075,0.00,VWS V14.01,2013-03-04 08:20:00,
2013-03-04 00:25:00,27.3,8.8,30.14,NNW,345,0.0,0.0,45,0.00,,FEW075,0.00,VWS V14.01,2013-03-04 08:25:00,
2013-03-04 00:30:00,27.1,8.6,30.14,NNW,345,0.0,0.0,45,0.00,,FEW075,0.00,VWS V14.01,2013-03-04 08:30:00,
2013-03-04 00:35:00,27.0,8.9,30.14,NNW,345,0.0,0.0,46,0.00,,FEW075,0.00,VWS V14.01,2013-03-04 08:35:00,
2013-03-04 00:40:00,26.8,8.8,30.14,NNW,345,0.0,0.0,46,0.00,,FEW075,0.00,VWS V14.01,2013-03-04 08:40:00,
2013-03-04 00:45:00,26.4,8.5,30.14,NNW,345,0.0,0.0,46,0.00,,FEW075,0.00,VWS V14.01,2013-03-04 08:45:00,
2013-03-04 00:50:00,26.4,8.9,30.14,NNW,345,0.0,0.0,47,0.00,,FEW075,0.00,VWS V14.01,2013-03-04 08:50:00,
2013-03-04 00:55:00,26.2,8.8,30.14,NNW,345,0.0,0.0,47,0.00,,FEW075,0.00,VWS V14.01,2013-03-04 08:55:00,
2013-03-04 01:00:00,26.1,8.6,30.14,NNW,345,0.0,0.0,47,0.00,,FEW075,0.00,VWS V14.01,2013-03-04 09:00:00,
2013-03-04 01:05:00,26.1,8.6,30.14,NNW,345,0.0,0.0,47,0.00,,FEW075,0.00,VWS V14.01,2013-03-04 09:05:00,
2013-03-04 01:10:00,26.1,9.1,30.14,NNW,345,0.0,0.0,48,0.00,,FEW075,0.00,VWS V14.01,2013-03-04 09:10:00,
2013-03-04 01:15:00,26.2,9.7,30.14,NNW,345,0.0,0.0,49,0.00,,FEW075,0.00,VWS V14.01,2013-03-04 09:15:00,
2013-03-04 01:20:00,26.6,10.5,30.14,NNW,345,2.2,2.2,50,0.00,,FEW075,0.00,VWS V14.01,2013-03-04 09:20:00,
2013-03-04 01:25:00,26.8,11.1,30.14,NNW,345,0.0,0.0,51,0.00,,FEW075,0.00,VWS V14.01,2013-03-04 09:25:00,
2013-03-04 01:30:00,27.0,11.7,30.14,NNW,345,0.0,0.0,52,0.00,,FEW075,0.00,VWS V14.01,2013-03-04 09:30:00,
2013-03-04 01:35:00,27.1,11.9,30.14,NNW,345,0.0,0.0,52,0.00,,FEW075,0.00,VWS V14.01,2013-03-04 09:35:00,
2013-03-04 01:40:00,27.1,11.9,30.16,NNW,345,0.0,0.0,52,0.00,,FEW075,0.00,VWS V14.01,2013-03-04 09:40:00,
2013-03-04 01:45:00,27.5,12.6,30.16,NNW,345,0.0,0.0,53,0.00,,FEW075,0.00,VWS V14.01,2013-03-04 09:45:00,
2013-03-04 01:50:00,27.9,13.0,30.16,NNW,345,0.0,0.0,53,0.00,,FEW075,0.00,VWS V14.01,2013-03-04 09:50:00,
2013-03-04 01:55:00,27.9,13.0,30.16,NNW,345,0.0,0.0,53,0.00,,FEW075,0.00,VWS V14.01,2013-03-04 09:55:00,
2013-03-04 02:00:00,27.9,13.0,30.16,NNW,345,0.0,0.0,53,0.00,,FEW075,0.00,VWS V14.01,2013-03-04 10:00:00,
2013-03-04 02:05:00,27.7,12.4,30.16,NNW,345,0.0,0.0,52,0.00,,FEW075,0.00,VWS V14.01,2013-03-04 10:05:00,
2013-03-04 02:10:00,27.3,12.0,30.16,NNW,345,0.0,0.0,52,0.00,,FEW075,0.00,VWS V14.01,2013-03-04 10:10:00,
2013-03-04 02:15:00,27.3,12.5,30.16,NNW,345,0.0,0.0,53,0.00,,FEW075,0.00,VWS V14.01,2013-03-04 10:15:00,
2013-03-04 02:20:00,27.3,12.9,30.16,NNW,345,0.0,0.0,54,0.00,,FEW075,0.00,VWS V14.01,2013-03-04 10:20:00,
2013-03-04 02:25:00,27.1,12.7,30.16,NNW,345,0.0,0.0,54,0.00,,FEW075,0.00,VWS V14.01,2013-03-04 10:25:00,
2013-03-04 02:30:00,27.0,13.0,30.16,NNW,345,0.0,0.0,55,0.00,,FEW075,0.00,VWS V14.01,2013-03-04 10:30:00,
2013-03-04 02:35:00,27.0,12.6,30.16,NNW,345,0.0,0.0,54,0.00,,FEW075,0.00,VWS V14.01,2013-03-04 10:35:00,
2013-03-04 02:40:00,27.3,13.3,30.16,NNW,345,0.0,0.0,55,0.00,,FEW075,0.00,VWS V14.01,2013-03-04 10:40:00,
2013-03-04 02:45:00,27.9,14.2,30.16,NNW,345,0.0,0.0,56,0.00,,FEW075,0.00,VWS V14.01,2013-03-04 10:45:00,
2013-03-04 02:50:00,27.9,14.2,30.16,NNW,345,0.0,0.0,56,0.00,,FEW075,0.00,VWS V14.01,2013-03-04 10:50:00,
2013-03-04 02:55:00,27.9,14.2,30.16,NNW,345,0.0,0.0,56,0.00,,FEW075,0.00,VWS V14.01,2013-03-04 10:55:00,
2013-03-04 03:00:00,28.0,14.8,30.16,NNW,345,0.0,0.0,57,0.00,,FEW075,0.00,VWS V14.01,2013-03-04 11:00:00,
2013-03-04 03:05:00,28.0,14.4,30.16,NNW,345,0.0,0.0,56,0.00,,SCT055,0.00,VWS V14.01,2013-03-04 11:05:00,
2013-03-04 03:10:00,27.5,13.5,30.16,NNW,345,0.0,0.0,55,0.00,,SCT055,0.00,VWS V14.01,2013-03-04 11:10:00,
2013-03-04 03:15:00,27.0,13.0,30.16,NNW,345,0.0,0.0,55,0.00,,SCT055,0.00,VWS V14.01,2013-03-04 11:15:00,
2013-03-04 03:20:00,26.8,12.8,30.16,NNW,345,0.0,0.0,55,0.00,,SCT055,0.00,VWS V14.01,2013-03-04 11:20:00,
2013-03-04 03:25:00,27.3,13.7,30.16,NNW,345,0.0,0.0,56,0.00,,SCT055,0.00,VWS V14.01,2013-03-04 11:25:00,
2013-03-04 03:30:00,27.9,14.6,30.16,North,7,0.0,0.0,57,0.00,,SCT055,0.00,VWS V14.01,2013-03-04 11:30:00,
2013-03-04 03:35:00,28.0,14.8,30.16,ENE,60,3.6,3.6,57,0.00,,SCT055,0.00,VWS V14.01,2013-03-04 11:35:00,
2013-03-04 03:40:00,28.2,15.0,30.16,ENE,64,2.7,2.7,57,0.00,,SCT055,0.00,VWS V14.01,2013-03-04 11:40:00,
2013-03-04 03:45:00,28.4,14.7,30.16,ENE,64,2.7,3.1,56,0.00,,SCT055,0.00,VWS V14.01,2013-03-04 11:45:00,
2013-03-04 03:50:00,28.4,14.7,30.16,ENE,64,2.2,2.2,56,0.00,,SCT055,0.00,VWS V14.01,2013-03-04 11:50:00,
2013-03-04 03:55:00,28.4,14.7,30.16,ENE,64,2.7,3.1,56,0.00,,SCT055,0.00,VWS V14.01,2013-03-04 11:55:00,
2013-03-04 04:00:00,28.4,14.3,30.16,ENE,64,0.0,0.0,55,0.00,,SCT055,0.00,VWS V14.01,2013-03-04 12:00:00,
2013-03-04 04:05:00,27.9,13.8,30.16,ENE,64,0.0,0.0,55,0.00,,FEW055,0.00,VWS V14.01,2013-03-04 12:05:00,
2013-03-04 04:10:00,27.3,12.9,30.16,ENE,64,0.0,0.0,54,0.00,,FEW055,0.00,VWS V14.01,2013-03-04 12:10:00,
2013-03-04 04:15:00,27.0,13.0,30.16,ENE,64,0.0,0.0,55,0.00,,FEW055,0.00,VWS V14.01,2013-03-04 12:15:00,
2013-03-04 04:20:00,27.0,13.0,30.16,ENE,64,0.0,0.0,55,0.00,,FEW055,0.00,VWS V14.01,2013-03-04 12:20:00,
2013-03-04 04:25:00,27.0,13.4,30.19,ENE,64,2.7,3.6,56,0.00,,FEW055,0.00,VWS V14.01,2013-03-04 12:25:00,
2013-03-04 04:30:00,27.5,14.3,30.19,ENE,64,3.1,3.1,57,0.00,,FEW055,0.00,VWS V14.01,2013-03-04 12:30:00,
2013-03-04 04:35:00,27.7,14.4,30.19,ENE,64,4.0,4.0,57,0.00,,FEW055,0.00,VWS V14.01,2013-03-04 12:35:00,
2013-03-04 04:39:00,27.9,14.6,30.19,ENE,65,4.0,5.8,57,0.00,,FEW055,0.00,VWS V14.01,2013-03-04 12:39:00,
2013-03-04 04:45:00,28.0,15.2,30.19,ENE,65,2.7,5.4,58,0.00,,FEW055,0.00,VWS V14.01,2013-03-04 12:45:00,
2013-03-04 04:50:00,28.2,15.0,30.19,ENE,71,2.7,4.0,57,0.00,,FEW055,0.00,VWS V14.01,2013-03-04 12:50:00,
2013-03-04 04:55:00,28.0,14.8,30.19,ENE,69,3.6,3.6,57,0.00,,FEW055,0.00,VWS V14.01,2013-03-04 12:55:00,
2013-03-04 04:59:00,28.0,15.2,30.19,ENE,75,2.7,3.6,58,0.00,,FEW055,0.00,VWS V14.01,2013-03-04 12:59:00,
2013-03-04 05:04:00,28.0,14.8,30.19,ENE,75,0.0,3.6,57,0.00,,FEW055,0.00,VWS V14.01,2013-03-04 13:04:00,
2013-03-04 05:09:00,28.0,14.8,30.19,ENE,75,0.0,3.1,57,0.00,,FEW055,0.00,VWS V14.01,2013-03-04 13:09:00,
2013-03-04 05:14:00,27.9,14.6,30.19,ENE,75,3.6,3.6,57,0.00,,FEW055,0.00,VWS V14.01,2013-03-04 13:14:00,
2013-03-04 05:19:00,27.9,15.0,30.19,ENE,73,0.0,0.0,58,0.00,,FEW055,0.00,VWS V14.01,2013-03-04 13:19:00,
2013-03-04 05:24:00,27.9,15.0,30.19,ENE,73,3.1,3.1,58,0.00,,FEW055,0.00,VWS V14.01,2013-03-04 13:24:00,
2013-03-04 05:29:00,27.7,14.9,30.19,ENE,73,0.0,0.0,58,0.00,,FEW055,0.00,VWS V14.01,2013-03-04 13:29:00,
2013-03-04 05:34:00,27.7,14.9,30.19,ENE,73,0.0,2.2,58,0.00,,FEW055,0.00,VWS V14.01,2013-03-04 13:34:00,
2013-03-04 05:39:00,27.5,14.7,30.19,ENE,73,0.0,0.0,58,0.00,,FEW055,0.00,VWS V14.01,2013-03-04 13:39:00,
2013-03-04 05:44:00,27.5,15.1,30.19,ENE,73,0.0,2.7,59,0.00,,FEW055,0.00,VWS V14.01,2013-03-04 13:44:00,
2013-03-04 05:49:00,27.7,15.2,30.19,ENE,73,2.7,2.7,59,0.00,,FEW055,0.00,VWS V14.01,2013-03-04 13:49:00,
2013-03-04 05:54:00,27.9,15.8,30.19,ENE,74,0.0,3.1,60,0.00,,FEW055,0.00,VWS V14.01,2013-03-04 13:54:00,
2013-03-04 05:59:00,27.9,15.8,30.19,ENE,74,0.0,2.7,60,0.00,,FEW055,0.00,VWS V14.01,2013-03-04 13:59:00,
2013-03-04 06:04:00,27.9,15.8,30.19,ENE,74,2.7,2.7,60,0.00,,FEW055,0.00,VWS V14.01,2013-03-04 14:04:00,
2013-03-04 06:09:00,27.5,15.1,30.19,ENE,74,2.2,3.1,59,0.00,,FEW055,0.00,VWS V14.01,2013-03-04 14:09:00,
2013-03-04 06:14:00,27.0,14.2,30.19,ENE,74,2.7,3.1,58,0.00,,FEW055,0.00,VWS V14.01,2013-03-04 14:14:00,
2013-03-04 06:19:00,26.2,13.5,30.19,ENE,74,0.0,0.0,58,0.00,,FEW055,0.00,VWS V14.01,2013-03-04 14:19:00,
2013-03-04 06:24:00,26.1,13.7,30.19,ENE,74,0.0,0.0,59,0.00,,FEW055,0.00,VWS V14.01,2013-03-04 14:24:00,
2013-03-04 06:29:00,25.9,13.5,30.19,ENE,74,0.0,0.0,59,0.00,,FEW055,0.00,VWS V14.01,2013-03-04 14:29:00,
2013-03-04 06:34:00,25.9,14.3,30.19,ENE,75,0.0,3.6,61,0.00,,FEW055,0.00,VWS V14.01,2013-03-04 14:34:00,
2013-03-04 06:39:00,26.1,14.8,30.19,ENE,75,0.0,2.7,62,0.00,,FEW055,0.00,VWS V14.01,2013-03-04 14:39:00,
2013-03-04 06:44:00,26.2,15.4,30.19,ENE,76,0.0,2.2,63,0.00,,FEW055,0.00,VWS V14.01,2013-03-04 14:44:00,
2013-03-04 06:49:00,26.4,15.6,30.19,ENE,75,0.0,0.0,63,0.00,,FEW055,0.00,VWS V14.01,2013-03-04 14:49:00,
2013-03-04 06:54:00,26.8,15.9,30.19,ENE,75,0.0,0.0,63,0.00,,FEW055,0.00,VWS V14.01,2013-03-04 14:54:00,
2013-03-04 06:59:00,27.1,16.2,30.19,ENE,76,2.7,2.7,63,0.00,,FEW055,0.00,VWS V14.01,2013-03-04 14:59:00,
2013-03-04 07:04:00,27.7,16.7,30.19,East,82,2.7,3.1,63,0.00,,FEW055,0.00,VWS V14.01,2013-03-04 15:04:00,
2013-03-04 07:09:00,28.2,17.3,30.22,East,82,2.7,2.7,63,0.00,,FEW055,0.00,VWS V14.01,2013-03-04 15:09:00,
2013-03-04 07:14:00,28.8,17.4,30.22,East,82,0.0,0.0,62,0.00,,FEW055,0.00,VWS V14.01,2013-03-04 15:14:00,
2013-03-04 07:19:00,29.5,17.7,30.22,East,82,2.2,2.2,61,0.00,,FEW055,0.00,VWS V14.01,2013-03-04 15:19:00,
2013-03-04 07:24:00,30.2,17.6,30.22,East,82,2.2,2.2,59,0.00,,FEW055,0.00,VWS V14.01,2013-03-04 15:24:00,
2013-03-04 07:29:00,30.9,17.1,30.22,East,87,2.7,2.7,56,0.00,,FEW055,0.00,VWS V14.01,2013-03-04 15:29:00,
2013-03-04 07:34:00,31.5,16.3,30.22,NE,39,2.7,2.7,53,0.00,,FEW055,0.00,VWS V14.01,2013-03-04 15:34:00,
2013-03-04 07:39:00,32.0,16.4,30.22,ENE,72,2.7,2.7,52,0.00,,FEW055,0.00,VWS V14.01,2013-03-04 15:39:00,
2013-03-04 07:44:00,32.2,16.1,30.22,East,98,3.1,4.9,51,0.00,,FEW055,0.00,VWS V14.01,2013-03-04 15:44:00,
2013-03-04 07:49:00,32.5,16.0,30.22,East,82,3.6,4.0,50,0.00,,FEW055,0.00,VWS V14.01,2013-03-04 15:49:00,
2013-03-04 07:54:00,32.9,15.9,30.22,East,83,3.1,3.1,49,0.00,,FEW055,0.00,VWS V14.01,2013-03-04 15:54:00,
2013-03-04 07:59:00,33.3,15.7,30.22,East,89,0.0,0.0,48,0.00,,FEW055,0.00,VWS V14.01,2013-03-04 15:59:00,
2013-03-04 08:04:00,33.6,15.6,30.22,ESE,116,4.0,4.0,47,0.00,,FEW060,0.00,VWS V14.01,2013-03-04 16:04:00,
2013-03-04 08:09:00,34.0,14.9,30.22,East,86,2.7,2.7,45,0.00,,FEW060,0.00,VWS V14.01,2013-03-04 16:09:00,
2013-03-04 08:14:00,34.5,14.9,30.22,ENE,58,4.9,4.9,44,0.00,,FEW060,0.00,VWS V14.01,2013-03-04 16:14:00,
2013-03-04 08:19:00,34.9,14.7,30.22,East,83,3.1,3.1,43,0.00,,FEW060,0.00,VWS V14.01,2013-03-04 16:19:00,
2013-03-04 08:24:00,35.1,14.8,30.22,ENE,76,3.6,3.6,43,0.00,,FEW060,0.00,VWS V14.01,2013-03-04 16:24:00,
2013-03-04 08:29:00,35.4,14.6,30.22,ENE,78,4.9,4.9,42,0.00,,FEW060,0.00,VWS V14.01,2013-03-04 16:29:00,
2013-03-04 08:34:00,35.4,14.6,30.22,NE,43,5.8,5.8,42,0.00,,FEW060,0.00,VWS V14.01,2013-03-04 16:34:00,
2013-03-04 08:39:00,36.0,14.6,30.22,East,85,2.7,3.1,41,0.00,,FEW060,0.00,VWS V14.01,2013-03-04 16:39:00,
2013-03-04 08:44:00,36.3,14.9,30.22,East,87,2.2,3.1,41,0.00,,FEW060,0.00,VWS V14.01,2013-03-04 16:44:00,
2013-03-04 08:49:00,36.9,14.8,30.22,East,84,3.1,3.1,40,0.00,,FEW060,0.00,VWS V14.01,2013-03-04 16:49:00,
2013-03-04 08:54:00,37.0,14.4,30.22,SSE,165,5.4,5.8,39,0.00,,FEW060,0.00,VWS V14.01,2013-03-04 16:54:00,
2013-03-04 08:59:00,37.2,14.6,30.22,NE,53,5.4,5.4,39,0.00,,FEW060,0.00,VWS V14.01,2013-03-04 16:59:00,
2013-03-04 09:04:00,37.4,13.5,30.22,ESE,104,4.0,4.0,37,0.00,,FEW200,0.00,VWS V14.01,2013-03-04 17:04:00,
2013-03-04 09:09:00,37.9,14.6,30.22,East,89,3.1,3.1,38,0.00,,FEW200,0.00,VWS V14.01,2013-03-04 17:09:00,
2013-03-04 09:14:00,38.3,13.7,30.22,East,84,0.0,0.0,36,0.00,,FEW200,0.00,VWS V14.01,2013-03-04 17:14:00,
2013-03-04 09:19:00,38.7,13.4,30.22,ENE,72,5.8,5.8,35,0.00,,FEW200,0.00,VWS V14.01,2013-03-04 17:19:00,
2013-03-04 09:24:00,38.7,13.4,30.22,ESE,102,5.8,8.1,35,0.00,,FEW200,0.00,VWS V14.01,2013-03-04 17:24:00,
2013-03-04 09:29:00,38.7,12.7,30.22,ENE,69,5.8,6.7,34,0.00,,FEW200,0.00,VWS V14.01,2013-03-04 17:29:00,
2013-03-04 09:34:00,38.8,12.2,30.22,ENE,60,5.8,6.3,33,0.00,,FEW200,0.00,VWS V14.01,2013-03-04 17:34:00,
2013-03-04 09:39:00,39.0,13.0,30.22,ENE,75,6.3,6.3,34,0.00,,FEW200,0.00,VWS V14.01,2013-03-04 17:39:00,
2013-03-04 09:44:00,39.2,12.5,30.22,ENE,61,3.6,6.3,33,0.00,,FEW200,0.00,VWS V14.01,2013-03-04 17:44:00,
2013-03-04 09:49:00,39.7,13.0,30.22,East,84,3.6,4.9,33,0.00,,FEW200,0.00,VWS V14.01,2013-03-04 17:49:00,
2013-03-04 09:54:00,39.7,12.3,30.22,East,93,3.6,4.9,32,0.00,,FEW200,0.00,VWS V14.01,2013-03-04 17:54:00,
2013-03-04 09:59:00,40.3,12.1,30.22,ENE,63,3.6,5.4,31,0.00,,FEW200,0.00,VWS V14.01,2013-03-04 17:59:00,
2013-03-04 10:04:00,40.8,12.5,30.22,ENE,77,3.1,4.0,31,0.00,,FEW200,0.00,VWS V14.01,2013-03-04 18:04:00,
2013-03-04 10:09:00,41.4,12.3,30.22,ENE,64,3.1,4.0,30,0.00,,FEW200,0.00,VWS V14.01,2013-03-04 18:09:00,
2013-03-04 10:14:00,41.5,12.4,30.22,ENE,70,5.8,6.3,30,0.00,,FEW200,0.00,VWS V14.01,2013-03-04 18:14:00,
2013-03-04 10:19:00,41.9,12.7,30.22,ENE,69,4.0,4.0,30,0.00,,FEW200,0.00,VWS V14.01,2013-03-04 18:19:00,
2013-03-04 10:24:00,42.1,12.1,30.22,ESE,119,2.2,3.6,29,0.00,,FEW200,0.00,VWS V14.01,2013-03-04 18:24:00,
2013-03-04 10:29:00,42.3,12.3,30.22,East,85,3.6,5.4,29,0.00,,FEW200,0.00,VWS V14.01,2013-03-04 18:29:00,
2013-03-04 10:34:00,42.4,12.4,30.22,East,85,4.5,6.3,29,0.00,,FEW200,0.00,VWS V14.01,2013-03-04 18:34:00,
2013-03-04 10:39:00,42.4,12.4,30.22,NE,42,5.4,5.8,29,0.00,,FEW200,0.00,VWS V14.01,2013-03-04 18:39:00,
2013-03-04 10:44:00,42.4,12.4,30.22,ENE,62,4.0,4.0,29,0.00,,FEW200,0.00,VWS V14.01,2013-03-04 18:44:00,
2013-03-04 10:49:00,42.8,12.0,30.22,ESE,105,5.4,5.4,28,0.00,,FEW200,0.00,VWS V14.01,2013-03-04 18:49:00,
2013-03-04 10:54:00,43.0,12.1,30.22,ENE,59,2.7,4.0,28,0.00,,FEW200,0.00,VWS V14.01,2013-03-04 18:54:00,
2013-03-04 10:59:00,43.2,13.1,30.22,East,84,3.1,3.1,29,0.00,,FEW200,0.00,VWS V14.01,2013-03-04 18:59:00,
2013-03-04 11:04:00,43.3,12.4,30.22,NE,56,5.4,5.4,28,0.00,,FEW200,0.00,VWS V14.01,2013-03-04 19:04:00,
2013-03-04 11:09:00,43.5,12.6,30.19,ENE,68,3.6,3.6,28,0.00,,FEW200,0.00,VWS V14.01,2013-03-04 19:09:00,
2013-03-04 11:14:00,43.3,12.4,30.19,East,98,3.1,3.1,28,0.00,,FEW200,0.00,VWS V14.01,2013-03-04 19:14:00,
2013-03-04 11:19:00,43.9,12.9,30.19,NE,54,3.6,3.6,28,0.00,,FEW200,0.00,VWS V14.01,2013-03-04 19:19:00,
2013-03-04 11:24:00,44.1,13.1,30.19,East,87,3.1,5.4,28,0.00,,FEW200,0.00,VWS V14.01,2013-03-04 19:24:00,
2013-03-04 11:29:00,43.7,12.8,30.19,East,88,3.1,3.1,28,0.00,,FEW200,0.00,VWS V14.01,2013-03-04 19:29:00,
2013-03-04 11:34:00,44.1,13.1,30.19,NE,44,8.3,8.3,28,0.00,,FEW200,0.00,VWS V14.01,2013-03-04 19:34:00,
2013-03-04 11:39:00,44.2,13.2,30.19,East,81,3.6,6.3,28,0.00,,FEW200,0.00,VWS V14.01,2013-03-04 19:39:00,
2013-03-04 11:44:00,44.4,13.4,30.19,ENE,59,2.7,3.1,28,0.00,,FEW200,0.00,VWS V14.01,2013-03-04 19:44:00,
2013-03-04 11:49:00,44.2,10.7,30.19,East,84,3.1,3.1,25,0.00,,FEW200,0.00,VWS V14.01,2013-03-04 19:49:00,
2013-03-04 11:54:00,44.6,12.7,30.16,ENE,58,5.4,5.4,27,0.00,,FEW200,0.00,VWS V14.01,2013-03-04 19:54:00,
2013-03-04 11:59:00,45.0,13.0,30.16,ENE,71,2.7,3.1,27,0.00,,FEW200,0.00,VWS V14.01,2013-03-04 19:59:00,
2013-03-04 12:04:00,45.3,11.6,30.16,ENE,69,5.8,5.8,25,0.00,,SCT200,0.00,VWS V14.01,2013-03-04 20:04:00,
2013-03-04 12:09:00,45.1,13.2,30.16,ENE,63,2.7,3.1,27,0.00,,SCT200,0.00,VWS V14.01,2013-03-04 20:09:00,
2013-03-04 12:14:00,45.1,13.2,30.16,East,99,6.3,6.3,27,0.00,,SCT200,0.00,VWS V14.01,2013-03-04 20:14:00,
2013-03-04 12:19:00,45.5,13.5,30.16,NE,47,2.7,4.9,27,0.00,,SCT200,0.00,VWS V14.01,2013-03-04 20:19:00,
2013-03-04 12:24:00,45.9,12.0,30.16,East,99,3.1,4.9,25,0.00,,SCT200,0.00,VWS V14.01,2013-03-04 20:24:00,
2013-03-04 12:29:00,45.7,11.9,30.16,ENE,63,4.0,4.9,25,0.00,,SCT200,0.00,VWS V14.01,2013-03-04 20:29:00,
2013-03-04 12:34:00,45.7,11.9,30.16,NNE,27,5.4,7.2,25,0.00,,SCT200,0.00,VWS V14.01,2013-03-04 20:34:00,
2013-03-04 12:39:00,45.9,12.0,30.16,ENE,63,5.4,5.4,25,0.00,,SCT200,0.00,VWS V14.01,2013-03-04 20:39:00,
2013-03-04 12:44:00,46.2,12.4,30.16,South,170,2.7,7.6,25,0.00,,SCT200,0.00,VWS V14.01,2013-03-04 20:44:00,
2013-03-04 12:49:00,46.6,11.7,30.16,NE,46,3.6,3.6,24,0.00,,SCT200,0.00,VWS V14.01,2013-03-04 20:49:00,
2013-03-04 12:54:00,46.9,12.1,30.16,ENE,75,3.6,3.6,24,0.00,,SCT200,0.00,VWS V14.01,2013-03-04 20:54:00,
2013-03-04 12:59:00,46.2,12.4,30.16,East,86,2.2,2.2,25,0.00,,SCT200,0.00,VWS V14.01,2013-03-04 20:59:00,
2013-03-04 13:04:00,45.3,11.6,30.16,NE,41,2.7,3.6,25,0.00,,SCT049,0.00,VWS V14.01,2013-03-04 21:04:00,
2013-03-04 13:09:00,45.1,11.4,30.16,NE,56,5.8,5.8,25,0.00,,SCT049,0.00,VWS V14.01,2013-03-04 21:09:00,
2013-03-04 13:14:00,45.1,11.4,30.16,NE,48,3.6,4.0,25,0.00,,SCT049,0.00,VWS V14.01,2013-03-04 21:14:00,
2013-03-04 13:19:00,45.1,11.4,30.16,ENE,59,2.7,3.1,25,0.00,,SCT049,0.00,VWS V14.01,2013-03-04 21:19:00,
2013-03-04 13:24:00,45.3,11.6,30.16,ENE,66,3.6,5.4,25,0.00,,SCT049,0.00,VWS V14.01,2013-03-04 21:24:00,
2013-03-04 13:29:00,45.1,8.6,30.16,East,82,4.9,4.9,22,0.00,,SCT049,0.00,VWS V14.01,2013-03-04 21:29:00,
2013-03-04 13:34:00,45.1,8.6,30.16,ENE,63,6.3,6.3,22,0.00,,SCT049,0.00,VWS V14.01,2013-03-04 21:34:00,
2013-03-04 13:39:00,45.0,8.4,30.14,ENE,62,4.5,4.5,22,0.00,,SCT049,0.00,VWS V14.01,2013-03-04 21:39:00,
2013-03-04 13:44:00,45.0,8.4,30.14,ENE,68,6.3,6.7,22,0.00,,SCT049,0.00,VWS V14.01,2013-03-04 21:44:00,
2013-03-04 13:49:00,45.0,8.4,30.14,NE,45,2.7,5.8,22,0.00,,SCT049,0.00,VWS V14.01,2013-03-04 21:49:00,
2013-03-04 13:54:00,45.3,8.7,30.14,NNE,32,4.0,7.6,22,0.00,,SCT049,0.00,VWS V14.01,2013-03-04 21:54:00,
2013-03-04 13:59:00,45.3,8.7,30.14,NE,51,5.4,6.3,22,0.00,,SCT049,0.00,VWS V14.01,2013-03-04 21:59:00,
2013-03-04 14:04:00,45.5,8.9,30.14,ENE,69,3.6,4.9,22,0.00,,BKN060,0.00,VWS V14.01,2013-03-04 22:04:00,
2013-03-04 14:09:00,45.5,8.9,30.14,NNE,26,4.0,6.3,22,0.00,,BKN060,0.00,VWS V14.01,2013-03-04 22:09:00,
2013-03-04 14:14:00,45.7,9.0,30.14,East,90,3.1,3.6,22,0.00,,BKN060,0.00,VWS V14.01,2013-03-04 22:14:00,
2013-03-04 14:19:00,46.2,12.4,30.14,South,170,0.0,3.6,25,0.00,,BKN060,0.00,VWS V14.01,2013-03-04 22:19:00,
2013-03-04 14:24:00,46.6,9.8,30.14,NW,308,0.0,0.0,22,0.00,,BKN060,0.00,VWS V14.01,2013-03-04 22:24:00,
2013-03-04 14:29:00,46.8,9.9,30.14,North,9,2.7,3.6,22,0.00,,BKN060,0.00,VWS V14.01,2013-03-04 22:29:00,
2013-03-04 14:34:00,46.6,9.8,30.14,NNW,327,0.0,2.2,22,0.00,,BKN060,0.00,VWS V14.01,2013-03-04 22:34:00,
2013-03-04 14:39:00,46.4,9.6,30.14,NNW,343,0.0,0.0,22,0.00,,BKN060,0.00,VWS V14.01,2013-03-04 22:39:00,
2013-03-04 14:44:00,46.4,9.6,30.14,South,176,3.1,3.1,22,0.00,,BKN060,0.00,VWS V14.01,2013-03-04 22:44:00,
2013-03-04 14:49:00,46.6,9.8,30.14,West,267,4.0,4.0,22,0.00,,BKN060,0.00,VWS V14.01,2013-03-04 22:49:00,
2013-03-04 14:54:00,46.9,10.1,30.14,SW,235,5.8,5.8,22,0.00,,BKN060,0.00,VWS V14.01,2013-03-04 22:54:00,
2013-03-04 14:59:00,46.9,10.1,30.14,WSW,239,4.9,5.8,22,0.00,,BKN060,0.00,VWS V14.01,2013-03-04 22:59:00,
2013-03-04 15:04:00,46.8,9.9,30.14,WSW,239,4.9,5.8,22,0.00,,BKN065,0.00,VWS V14.01,2013-03-04 23:04:00,
2013-03-04 15:09:00,47.1,12.2,30.14,WSW,248,5.8,8.3,24,0.00,,BKN065,0.00,VWS V14.01,2013-03-04 23:09:00,
2013-03-04 15:14:00,47.3,10.4,30.14,SSW,201,4.9,7.6,22,0.00,,BKN065,0.00,VWS V14.01,2013-03-04 23:14:00,
2013-03-04 15:19:00,47.5,10.6,30.14,West,274,4.0,5.8,22,0.00,,BKN065,0.00,VWS V14.01,2013-03-04 23:19:00,
2013-03-04 15:24:00,47.5,10.6,30.14,West,270,4.0,4.9,22,0.00,,BKN065,0.00,VWS V14.01,2013-03-04 23:24:00,
2013-03-04 15:29:00,47.3,10.4,30.14,WSW,252,4.9,5.8,22,0.00,,BKN065,0.00,VWS V14.01,2013-03-04 23:29:00,
2013-03-04 15:34:00,47.3,10.4,30.14,WSW,252,0.0,4.0,22,0.00,,BKN065,0.00,VWS V14.01,2013-03-04 23:34:00,
2013-03-04 15:39:00,47.1,10.2,30.11,West,260,0.0,2.7,22,0.00,,BKN065,0.00,VWS V14.01,2013-03-04 23:39:00,
2013-03-04 15:44:00,46.9,10.1,30.11,West,261,4.0,6.3,22,0.00,,BKN065,0.00,VWS V14.01,2013-03-04 23:44:00,
2013-03-04 15:49:00,46.6,9.8,30.11,West,268,3.1,4.0,22,0.00,,BKN065,0.00,VWS V14.01,2013-03-04 23:49:00,
2013-03-04 15:54:00,46.0,9.3,30.11,SSW,205,2.7,3.6,22,0.00,,BKN065,0.00,VWS V14.01,2013-03-04 23:54:00,
2013-03-04 15:59:00,45.5,8.9,30.11,SW,227,5.8,5.8,22,0.00,,BKN065,0.00,VWS V14.01,2013-03-04 23:59:00,
2013-03-04 16:04:00,45.1,8.6,30.11,SW,219,5.4,6.3,22,0.00,,SCT200,0.00,VWS V14.01,2013-03-05 00:04:00,
2013-03-04 16:09:00,44.6,8.1,30.11,South,191,4.9,5.8,22,0.00,,SCT200,0.00,VWS V14.01,2013-03-05 00:09:00,
2013-03-04 16:14:00,44.2,8.8,30.11,SSW,212,3.1,3.6,23,0.00,,SCT200,0.00,VWS V14.01,2013-03-05 00:14:00,
2013-03-04 16:19:00,43.9,8.5,30.11,SW,220,4.9,4.9,23,0.00,,SCT200,0.00,VWS V14.01,2013-03-05 00:19:00,
2013-03-04 16:24:00,43.5,8.2,30.11,SW,216,2.7,3.6,23,0.00,,SCT200,0.00,VWS V14.01,2013-03-05 00:24:00,
2013-03-04 16:29:00,43.3,8.0,30.11,SW,222,0.0,0.0,23,0.00,,SCT200,0.00,VWS V14.01,2013-03-05 00:29:00,
2013-03-04 16:34:00,43.0,7.7,30.11,SSE,164,0.0,2.2,23,0.00,,SCT200,0.00,VWS V14.01,2013-03-05 00:34:00,
2013-03-04 16:39:00,42.6,7.4,30.11,SSE,153,0.0,0.0,23,0.00,,SCT200,0.00,VWS V14.01,2013-03-05 00:39:00,
2013-03-04 16:44:00,42.3,7.1,30.11,SSE,153,0.0,0.0,23,0.00,,SCT200,0.00,VWS V14.01,2013-03-05 00:44:00,
2013-03-04 16:49:00,41.9,6.8,30.11,SSE,153,0.0,0.0,23,0.00,,SCT200,0.00,VWS V14.01,2013-03-05 00:49:00,
2013-03-04 16:54:00,41.5,6.5,30.11,SSE,153,0.0,0.0,23,0.00,,SCT200,0.00,VWS V14.01,2013-03-05 00:54:00,
2013-03-04 16:59:00,40.8,5.9,30.11,SSE,153,0.0,0.0,23,0.00,,SCT200,0.00,VWS V14.01,2013-03-05 00:59:00,
2013-03-04 17:04:00,40.3,5.4,30.11,SSE,153,0.0,0.0,23,0.00,,SCT200,0.00,VWS V14.01,2013-03-05 01:04:00,
2013-03-04 17:09:00,39.7,7.7,30.08,SSE,153,0.0,0.0,26,0.00,,SCT200,0.00,VWS V14.01,2013-03-05 01:09:00,
2013-03-04 17:14:00,39.4,7.4,30.08,SSE,153,0.0,0.0,26,0.00,,SCT200,0.00,VWS V14.01,2013-03-05 01:14:00,
2013-03-04 17:19:00,38.8,6.9,30.08,SSE,153,0.0,0.0,26,0.00,,SCT200,0.00,VWS V14.01,2013-03-05 01:19:00,
2013-03-04 17:24:00,38.7,6.7,30.08,SE,144,0.0,2.7,26,0.00,,SCT200,0.00,VWS V14.01,2013-03-05 01:24:00,
2013-03-04 17:29:00,38.5,6.6,30.08,SE,144,0.0,0.0,26,0.00,,SCT200,0.00,VWS V14.01,2013-03-05 01:29:00,
2013-03-04 17:34:00,37.6,5.8,30.08,SE,144,0.0,0.0,26,0.00,,SCT200,0.00,VWS V14.01,2013-03-05 01:34:00,
2013-03-04 17:39:00,36.9,6.0,30.08,SE,144,0.0,0.0,27,0.00,,SCT200,0.00,VWS V14.01,2013-03-05 01:39:00,
2013-03-04 17:44:00,36.3,5.6,30.08,SE,144,0.0,0.0,27,0.00,,SCT200,0.00,VWS V14.01,2013-03-05 01:44:00,
2013-03-04 17:49:00,36.0,6.8,30.08,SE,144,0.0,0.0,29,0.00,,SCT200,0.00,VWS V14.01,2013-03-05 01:49:00,
2013-03-04 17:54:00,35.4,7.1,30.08,SE,144,0.0,0.0,30,0.00,,SCT200,0.00,VWS V14.01,2013-03-05 01:54:00,
2013-03-04 17:59:00,35.1,6.8,30.08,SE,144,0.0,0.0,30,0.00,,SCT200,0.00,VWS V14.01,2013-03-05 01:59:00,
2013-03-04 18:04:00,34.5,6.3,30.08,SE,144,0.0,0.0,30,0.00,,SCT200,0.00,VWS V14.01,2013-03-05 02:04:00,
2013-03-04 18:09:00,34.5,6.3,30.08,SE,144,0.0,0.0,30,0.00,,SCT200,0.00,VWS V14.01,2013-03-05 02:09:00,
2013-03-04 18:14:00,34.5,7.0,30.08,SE,144,0.0,0.0,31,0.00,,SCT200,0.00,VWS V14.01,2013-03-05 02:14:00,
2013-03-04 18:19:00,34.5,7.0,30.08,SE,144,0.0,0.0,31,0.00,,SCT200,0.00,VWS V14.01,2013-03-05 02:19:00,
2013-03-04 18:24:00,33.8,6.4,30.08,SE,144,0.0,0.0,31,0.00,,SCT200,0.00,VWS V14.01,2013-03-05 02:24:00,
2013-03-04 18:29:00,34.5,7.0,30.08,ESE,121,0.0,2.7,31,0.00,,SCT200,0.00,VWS V14.01,2013-03-05 02:29:00,
2013-03-04 18:34:00,35.1,7.5,30.08,ESE,120,0.0,0.0,31,0.00,,SCT200,0.00,VWS V14.01,2013-03-05 02:34:00,
2013-03-04 18:39:00,35.1,7.5,30.08,ESE,121,0.0,0.0,31,0.00,,SCT200,0.00,VWS V14.01,2013-03-05 02:39:00,
2013-03-04 18:44:00,35.1,7.5,30.08,ESE,121,0.0,0.0,31,0.00,,SCT200,0.00,VWS V14.01,2013-03-05 02:44:00,
2013-03-04 18:49:00,35.1,7.5,30.08,ESE,121,0.0,0.0,31,0.00,,SCT200,0.00,VWS V14.01,2013-03-05 02:49:00,
2013-03-04 18:54:00,34.9,7.3,30.08,ESE,121,0.0,0.0,31,0.00,,SCT200,0.00,VWS V14.01,2013-03-05 02:54:00,
2013-03-04 18:59:00,34.9,7.3,30.08,ESE,121,0.0,0.0,31,0.00,,SCT200,0.00,VWS V14.01,2013-03-05 02:59:00,
2013-03-04 19:04:00,34.9,6.6,30.08,ESE,121,2.7,2.7,30,0.00,,FEW140,0.00,VWS V14.01,2013-03-05 03:04:00,
2013-03-04 19:09:00,35.1,6.8,30.08,ESE,121,0.0,0.0,30,0.00,,FEW140,0.00,VWS V14.01,2013-03-05 03:09:00,
2013-03-04 19:14:00,34.7,6.4,30.08,ESE,119,0.0,0.0,30,0.00,,FEW140,0.00,VWS V14.01,2013-03-05 03:14:00,
2013-03-04 19:19:00,34.5,6.3,30.08,ESE,119,0.0,0.0,30,0.00,,FEW140,0.00,VWS V14.01,2013-03-05 03:19:00,
2013-03-04 19:24:00,34.3,6.1,30.08,ESE,119,0.0,0.0,30,0.00,,FEW140,0.00,VWS V14.01,2013-03-05 03:24:00,
2013-03-04 19:29:00,34.2,6.0,30.08,ESE,119,0.0,2.2,30,0.00,,FEW140,0.00,VWS V14.01,2013-03-05 03:29:00,
2013-03-04 19:34:00,34.2,6.0,30.08,ESE,119,2.7,2.7,30,0.00,,FEW140,0.00,VWS V14.01,2013-03-05 03:34:00,
2013-03-04 19:39:00,34.2,6.0,30.08,ESE,119,0.0,0.0,30,0.00,,FEW140,0.00,VWS V14.01,2013-03-05 03:39:00,
2013-03-04 19:44:00,34.0,5.8,30.08,ESE,119,2.7,2.7,30,0.00,,FEW140,0.00,VWS V14.01,2013-03-05 03:44:00,
2013-03-04 19:49:00,33.8,5.7,30.08,ESE,119,2.2,3.1,30,0.00,,FEW140,0.00,VWS V14.01,2013-03-05 03:49:00,
2013-03-04 19:54:00,33.6,6.2,30.08,ESE,118,0.0,0.0,31,0.00,,FEW140,0.00,VWS V14.01,2013-03-05 03:54:00,
2013-03-04 19:59:00,33.4,6.1,30.08,ESE,115,2.7,3.6,31,0.00,,FEW140,0.00,VWS V14.01,2013-03-05 03:59:00,
2013-03-04 20:04:00,33.4,6.1,30.08,ESE,114,0.0,0.0,31,0.00,,FEW200,0.00,VWS V14.01,2013-03-05 04:04:00,
2013-03-04 20:09:00,33.6,6.2,30.08,ESE,109,2.7,2.7,31,0.00,,FEW200,0.00,VWS V14.01,2013-03-05 04:09:00,
2013-03-04 20:14:00,33.8,5.7,30.08,ESE,105,2.7,2.7,30,0.00,,FEW200,0.00,VWS V14.01,2013-03-05 04:14:00,
2013-03-04 20:19:00,33.8,5.7,30.08,East,97,2.2,3.1,30,0.00,,FEW200,0.00,VWS V14.01,2013-03-05 04:19:00,
2013-03-04 20:24:00,33.8,5.7,30.08,East,94,2.2,2.2,30,0.00,,FEW200,0.00,VWS V14.01,2013-03-05 04:24:00,
2013-03-04 20:29:00,34.0,5.8,30.08,East,101,2.2,2.2,30,0.00,,FEW200,0.00,VWS V14.01,2013-03-05 04:29:00,
2013-03-04 20:34:00,34.0,6.5,30.08,East,98,3.1,3.1,31,0.00,,FEW200,0.00,VWS V14.01,2013-03-05 04:34:00,
2013-03-04 20:39:00,33.8,6.4,30.05,East,84,0.0,2.7,31,0.00,,FEW200,0.00,VWS V14.01,2013-03-05 04:39:00,
2013-03-04 20:44:00,33.6,6.2,30.05,East,90,2.7,3.1,31,0.00,,FEW200,0.00,VWS V14.01,2013-03-05 04:44:00,
2013-03-04 20:49:00,33.4,6.1,30.05,ENE,64,2.7,2.7,31,0.00,,FEW200,0.00,VWS V14.01,2013-03-05 04:49:00,
2013-03-04 20:54:00,33.1,5.8,30.05,ENE,77,0.0,0.0,31,0.00,,FEW200,0.00,VWS V14.01,2013-03-05 04:54:00,
2013-03-04 20:59:00,32.9,5.6,30.05,East,83,0.0,0.0,31,0.00,,FEW200,0.00,VWS V14.01,2013-03-05 04:59:00,
2013-03-04 21:00:00,33.1,5.8,30.05,East,85,3.1,3.1,31,0.00,,FEW200,0.00,VWS V14.01,2013-03-05 05:00:00,
2013-03-04 21:05:00,32.9,5.6,30.05,East,88,0.0,0.0,31,0.00,,FEW200,0.00,VWS V14.01,2013-03-05 05:05:00,
2013-03-04 21:10:00,32.9,5.6,30.05,ENE,78,2.7,2.7,31,0.00,,FEW200,0.00,VWS V14.01,2013-03-05 05:10:00,
2013-03-04 21:15:00,33.1,5.8,30.05,East,92,3.1,3.1,31,0.00,,FEW200,0.00,VWS V14.01,2013-03-05 05:15:00,
2013-03-04 21:20:00,32.9,5.6,30.05,East,94,3.1,3.1,31,0.00,,FEW200,0.00,VWS V14.01,2013-03-05 05:20:00,
2013-03-04 21:25:00,32.9,5.6,30.05,ESE,103,0.0,2.2,31,0.00,,FEW200,0.00,VWS V14.01,2013-03-05 05:25:00,
2013-03-04 21:30:00,32.7,5.4,30.05,East,94,2.7,2.7,31,0.00,,FEW200,0.00,VWS V14.01,2013-03-05 05:30:00,
2013-03-04 21:35:00,32.7,5.4,30.05,ESE,105,0.0,2.2,31,0.00,,FEW200,0.00,VWS V14.01,2013-03-05 05:35:00,
2013-03-04 21:40:00,32.5,5.3,30.05,East,101,2.7,3.1,31,0.00,,FEW200,0.00,VWS V14.01,2013-03-05 05:40:00,
2013-03-04 21:45:00,32.5,5.3,30.05,East,85,2.7,2.7,31,0.00,,FEW200,0.00,VWS V14.01,2013-03-05 05:45:00,
2013-03-04 21:50:00,32.4,5.1,30.05,East,95,3.1,3.1,31,0.00,,FEW200,0.00,VWS V14.01,2013-03-05 05:50:00,
2013-03-04 21:55:00,32.4,5.8,30.05,East,98,2.7,3.6,32,0.00,,FEW200,0.00,VWS V14.01,2013-03-05 05:55:00,
2013-03-04 22:00:00,32.5,5.3,30.05,ENE,70,3.1,3.1,31,0.00,,FEW200,0.00,VWS V14.01,2013-03-05 06:00:00,
2013-03-04 22:05:00,32.5,5.3,30.05,East,82,2.2,3.6,31,0.00,,CLR,0.00,VWS V14.01,2013-03-05 06:05:00,
2013-03-04 22:10:00,32.5,5.3,30.05,East,98,3.1,3.1,31,0.00,,CLR,0.00,VWS V14.01,2013-03-05 06:10:00,
2013-03-04 22:15:00,32.5,6.0,30.05,East,87,2.2,3.1,32,0.00,,CLR,0.00,VWS V14.01,2013-03-05 06:15:00,
2013-03-04 22:20:00,32.4,5.8,30.05,East,86,0.0,2.7,32,0.00,,CLR,0.00,VWS V14.01,2013-03-05 06:20:00,
2013-03-04 22:25:00,32.2,5.7,30.05,East,89,2.7,3.1,32,0.00,,CLR,0.00,VWS V14.01,2013-03-05 06:25:00,
2013-03-04 22:30:00,32.2,5.7,30.05,East,89,2.7,3.1,32,0.00,,CLR,0.00,VWS V14.01,2013-03-05 06:30:00,
2013-03-04 22:35:00,32.0,5.5,30.05,East,87,2.7,4.9,32,0.00,,CLR,0.00,VWS V14.01,2013-03-05 06:35:00,
2013-03-04 22:40:00,31.8,5.3,30.05,ESE,102,4.0,6.3,32,0.00,,CLR,0.00,VWS V14.01,2013-03-05 06:40:00,
2013-03-04 22:45:00,31.8,5.3,30.05,East,92,3.1,3.1,32,0.00,,CLR,0.00,VWS V14.01,2013-03-05 06:45:00,
2013-03-04 22:50:00,31.6,5.2,30.05,East,98,3.1,4.0,32,0.00,,CLR,0.00,VWS V14.01,2013-03-05 06:50:00,
2013-03-04 22:55:00,31.5,5.7,30.02,East,96,3.6,3.6,33,0.00,,CLR,0.00,VWS V14.01,2013-03-05 06:55:00,
2013-03-04 23:00:00,31.3,5.5,30.02,East,96,3.1,3.6,33,0.00,,CLR,0.00,VWS V14.01,2013-03-05 07:00:00,
2013-03-04 23:05:00,31.1,5.4,30.02,East,97,2.7,3.1,33,0.00,,CLR,0.00,VWS V14.01,2013-03-05 07:05:00,
2013-03-04 23:10:00,31.1,5.4,30.02,East,88,2.7,3.6,33,0.00,,CLR,0.00,VWS V14.01,2013-03-05 07:10:00,
2013-03-04 23:15:00,31.1,5.4,30.02,East,94,3.6,3.6,33,0.00,,CLR,0.00,VWS V14.01,2013-03-05 07:15:00,
2013-03-04 23:20:00,31.1,5.4,30.02,East,92,4.0,4.0,33,0.00,,CLR,0.00,VWS V14.01,2013-03-05 07:20:00,
2013-03-04 23:25:00,31.1,6.0,30.02,ENE,78,3.6,4.0,34,0.00,,CLR,0.00,VWS V14.01,2013-03-05 07:25:00,
2013-03-04 23:30:00,31.1,6.0,30.02,ENE,64,2.7,4.9,34,0.00,,CLR,0.00,VWS V14.01,2013-03-05 07:30:00,
2013-03-04 23:35:00,30.9,5.9,30.02,East,89,3.6,3.6,34,0.00,,CLR,0.00,VWS V14.01,2013-03-05 07:35:00,
2013-03-04 23:40:00,30.9,5.9,30.02,East,89,2.2,3.6,34,0.00,,CLR,0.00,VWS V14.01,2013-03-05 07:40:00,
2013-03-04 23:45:00,30.7,5.7,30.02,ESE,105,4.5,4.5,34,0.00,,CLR,0.00,VWS V14.01,2013-03-05 07:45:00,
2013-03-04 23:50:00,30.6,5.5,30.02,East,91,0.0,2.7,34,0.00,,CLR,0.00,VWS V14.01,2013-03-05 07:50:00,
2013-03-04 23:55:00,30.6,5.5,30.05,East,87,2.2,4.0,34,0.00,,CLR,0.00,VWS V14.01,2013-03-05 07:55:00,